Time;durP1;ratioP1;P1;durP2;ratioP2;P2;SDS_P1;SDS_P2;PMS_P1;PMS_P2;Temp;Humidity;BMP_temperature;BMP_pressure;BME280_temperature;BME280_humidity;BME280_pressure;Samples;Min_cycle;Max_cycle;Signal;HPM_P1;HPM_P2
2022/06/30 00:01:19;;;;;;;12.63;7.00;;;20.60;99.90;;;;;;5029037;28;20451;-75
2022/06/30 00:04:05;;;;;;;9.13;7.67;;;20.80;99.90;;;;;;5031309;28;20487;-75
2022/06/30 00:06:52;;;;;;;6.93;6.00;;;20.80;99.90;;;;;;5028087;28;20487;-74
2022/06/30 00:09:40;;;;;;;8.07;6.60;;;20.80;99.90;;;;;;5044245;28;20942;-74
2022/06/30 00:12:26;;;;;;;7.30;6.30;;;20.70;99.90;;;;;;5037008;28;20436;-74
2022/06/30 00:15:12;;;;;;;6.87;6.27;;;20.60;99.90;;;;;;5032675;28;20464;-74
2022/06/30 00:17:58;;;;;;;10.33;6.20;;;20.50;99.90;;;;;;5031196;28;20452;-75
2022/06/30 00:20:43;;;;;;;8.90;7.70;;;20.50;99.90;;;;;;5036999;28;20432;-74
2022/06/30 00:23:29;;;;;;;8.37;6.70;;;20.50;99.90;;;;;;5032785;28;20968;-75
2022/06/30 00:26:15;;;;;;;11.23;7.33;;;20.40;99.90;;;;;;5035430;28;20463;-74
2022/06/30 00:29:01;;;;;;;10.33;7.10;;;20.30;99.90;;;;;;5026035;28;20811;-75
2022/06/30 00:31:46;;;;;;;8.47;7.57;;;20.30;99.90;;;;;;5038494;28;20435;-74
2022/06/30 00:34:32;;;;;;;8.43;6.70;;;20.40;99.90;;;;;;5032865;28;20463;-74
2022/06/30 00:37:18;;;;;;;12.33;7.07;;;20.40;99.90;;;;;;5031781;28;20495;-75
2022/06/30 00:40:04;;;;;;;10.23;6.70;;;20.50;99.90;;;;;;5032900;28;20455;-74
2022/06/30 00:42:52;;;;;;;13.90;7.70;;;20.60;99.90;;;;;;5035067;28;20447;-75
2022/06/30 00:45:41;;;;;;;8.70;7.17;;;20.60;99.90;;;;;;5029537;28;20488;-75
2022/06/30 00:48:26;;;;;;;11.93;8.07;;;20.50;99.90;;;;;;5033746;28;20571;-75
2022/06/30 00:51:12;;;;;;;10.23;7.90;;;20.40;99.90;;;;;;5031267;28;20455;-75
2022/06/30 00:54:02;;;;;;;7.97;7.17;;;20.40;99.90;;;;;;5032498;28;20839;-75
2022/06/30 00:56:49;;;;;;;11.07;7.13;;;20.40;99.90;;;;;;5034931;28;20461;-74
2022/06/30 00:59:38;;;;;;;7.37;6.63;;;20.40;99.90;;;;;;5033896;28;20445;-74
2022/06/30 01:02:23;;;;;;;8.40;6.27;;;20.50;99.90;;;;;;5031676;28;20452;-75
2022/06/30 01:05:09;;;;;;;10.63;6.33;;;20.50;99.90;;;;;;5030432;28;20473;-75
2022/06/30 01:07:56;;;;;;;14.20;7.33;;;20.40;99.90;;;;;;5032237;28;20447;-74
2022/06/30 01:13:45;;;;;;;8.13;7.10;;;20.30;99.90;;;;;;5043599;28;20800;-75
2022/06/30 01:16:32;;;;;;;7.70;6.57;;;20.30;99.90;;;;;;5030800;28;20511;-74
2022/06/30 01:19:18;;;;;;;7.80;6.73;;;20.30;99.90;;;;;;5038039;28;20460;-74
2022/06/30 01:22:05;;;;;;;11.20;7.50;;;20.20;99.90;;;;;;5036940;28;20527;-74
2022/06/30 01:24:51;;;;;;;7.87;6.87;;;20.10;99.90;;;;;;5029341;28;20840;-74
2022/06/30 01:27:37;;;;;;;8.77;7.90;;;20.00;99.90;;;;;;5030603;28;20538;-74
2022/06/30 01:30:24;;;;;;;15.03;8.00;;;19.80;99.90;;;;;;5029945;28;20807;-74
2022/06/30 01:33:09;;;;;;;7.90;6.77;;;19.70;99.90;;;;;;5034730;28;20443;-74
2022/06/30 01:35:56;;;;;;;10.10;6.73;;;19.80;99.90;;;;;;5028663;28;20454;-74
2022/06/30 01:38:43;;;;;;;12.53;7.10;;;20.00;99.90;;;;;;5033563;28;20444;-74
2022/06/30 01:41:29;;;;;;;8.13;6.60;;;20.10;99.90;;;;;;5031048;28;20456;-75
2022/06/30 01:44:14;;;;;;;11.80;6.83;;;20.00;99.90;;;;;;5027511;28;20806;-74
2022/06/30 01:47:00;;;;;;;10.23;6.93;;;20.00;99.90;;;;;;5032290;28;20839;-75
2022/06/30 01:49:46;;;;;;;8.23;7.20;;;20.00;99.90;;;;;;5036158;28;20790;-74
2022/06/30 01:52:31;;;;;;;8.40;6.60;;;20.10;99.90;;;;;;5031338;28;20452;-74
2022/06/30 01:55:18;;;;;;;13.60;6.60;;;20.10;99.90;;;;;;5025585;28;20521;-74
2022/06/30 01:58:04;;;;;;;9.40;6.87;;;20.00;99.90;;;;;;5036610;28;20452;-74
2022/06/30 02:00:49;;;;;;;6.90;6.17;;;19.90;99.90;;;;;;5035043;28;20459;-74
2022/06/30 02:03:35;;;;;;;9.37;7.47;;;19.70;99.90;;;;;;5028002;28;21413;-74
2022/06/30 02:06:20;;;;;;;9.33;6.70;;;19.60;99.90;;;;;;5032888;28;20515;-76
2022/06/30 02:09:06;;;;;;;9.37;6.43;;;19.60;99.90;;;;;;5035792;28;20442;-74
2022/06/30 02:12:44;;;;;;;9.80;6.60;;;19.60;99.90;;;;;;5032846;28;20467;-75
2022/06/30 02:15:00;;;;;;;7.50;6.80;;;19.60;99.90;;;;;;5026347;28;20472;-74
2022/06/30 02:17:47;;;;;;;11.20;7.40;;;19.70;99.90;;;;;;5031142;28;20444;-74
2022/06/30 02:20:33;;;;;;;8.70;6.73;;;19.60;99.90;;;;;;5028352;28;20447;-74
2022/06/30 02:23:19;;;;;;;10.00;6.47;;;19.60;99.90;;;;;;5030098;28;20463;-74
2022/06/30 02:26:04;;;;;;;10.47;7.27;;;19.50;99.90;;;;;;5033203;28;20841;-75
2022/06/30 02:28:51;;;;;;;7.90;7.10;;;19.50;99.90;;;;;;5035592;28;20447;-74
2022/06/30 02:31:37;;;;;;;8.40;6.17;;;19.50;99.90;;;;;;5030812;28;20452;-74
2022/06/30 02:34:23;;;;;;;12.03;6.63;;;19.60;99.90;;;;;;5024220;28;20476;-74
2022/06/30 02:37:08;;;;;;;7.03;6.13;;;19.60;99.90;;;;;;5032010;28;21036;-74
2022/06/30 02:39:54;;;;;;;9.97;6.77;;;19.50;99.90;;;;;;5041541;28;20424;-74
2022/06/30 02:42:40;;;;;;;8.33;7.30;;;19.40;99.90;;;;;;5038607;28;20506;-74
2022/06/30 02:45:27;;;;;;;12.67;7.43;;;19.30;99.90;;;;;;5028585;28;20465;-75
2022/06/30 02:48:13;;;;;;;8.03;7.23;;;19.10;99.90;;;;;;5028057;28;20471;-74
2022/06/30 02:50:58;;;;;;;9.70;7.20;;;19.10;99.90;;;;;;5031174;28;20503;-74
2022/06/30 02:53:44;;;;;;;13.90;7.00;;;19.00;99.90;;;;;;5023819;28;20448;-74
2022/06/30 02:56:30;;;;;;;8.80;6.37;;;19.00;99.90;;;;;;5028527;28;20484;-74
2022/06/30 02:59:16;;;;;;;7.00;6.30;;;18.90;99.90;;;;;;5029839;28;20447;-74
2022/06/30 03:02:03;;;;;;;9.20;6.20;;;18.90;99.90;;;;;;5029329;28;20440;-74
2022/06/30 03:04:50;;;;;;;9.77;5.60;;;18.90;99.90;;;;;;5028057;28;20480;-74
2022/06/30 03:07:35;;;;;;;7.37;5.93;;;19.00;99.90;;;;;;5031910;28;20468;-74
2022/06/30 03:10:21;;;;;;;12.93;6.30;;;18.90;99.90;;;;;;5030194;28;20499;-74
2022/06/30 03:13:07;;;;;;;6.93;6.23;;;18.90;99.90;;;;;;5025980;28;20621;-74
2022/06/30 03:15:52;;;;;;;6.40;5.80;;;18.90;99.90;;;;;;5030160;28;20451;-74
2022/06/30 03:18:40;;;;;;;6.63;5.63;;;18.80;99.90;;;;;;5040886;28;20452;-75
2022/06/30 03:21:26;;;;;;;7.20;6.47;;;18.80;99.90;;;;;;5036988;28;20813;-74
2022/06/30 03:24:12;;;;;;;7.20;6.00;;;18.80;99.90;;;;;;5023579;28;20556;-74
2022/06/30 03:26:58;;;;;;;10.73;6.10;;;18.80;99.90;;;;;;5031438;28;20475;-74
2022/06/30 03:29:43;;;;;;;8.23;5.90;;;18.90;99.90;;;;;;5040625;28;20451;-74
2022/06/30 03:32:29;;;;;;;7.90;5.60;;;19.00;99.90;;;;;;5034428;28;20508;-74
2022/06/30 03:35:16;;;;;;;8.90;5.70;;;19.00;99.90;;;;;;5041542;28;20459;-74
2022/06/30 03:38:03;;;;;;;9.10;7.53;;;19.00;99.90;;;;;;5041226;28;20531;-74
2022/06/30 03:40:49;;;;;;;9.20;6.07;;;19.00;99.90;;;;;;5034034;28;20445;-74
2022/06/30 03:43:34;;;;;;;11.10;6.90;;;18.90;99.90;;;;;;5036314;28;20448;-75
2022/06/30 03:46:20;;;;;;;8.57;5.87;;;18.80;99.90;;;;;;5039015;28;20825;-75
2022/06/30 03:49:06;;;;;;;8.93;5.90;;;18.70;99.90;;;;;;5037798;28;20426;-74
2022/06/30 03:51:53;;;;;;;6.80;5.30;;;18.70;99.90;;;;;;5034951;28;20528;-74
2022/06/30 03:54:39;;;;;;;22.00;8.60;;;18.60;99.90;;;;;;5032872;28;20962;-74
2022/06/30 03:57:25;;;;;;;9.07;6.43;;;18.60;99.90;;;;;;5041434;28;20431;-74
2022/06/30 04:00:11;;;;;;;7.10;5.77;;;18.60;99.90;;;;;;5038494;28;20440;-74
2022/06/30 04:02:56;;;;;;;6.00;5.40;;;18.60;99.90;;;;;;5034665;28;20514;-75
2022/06/30 04:05:42;;;;;;;7.83;6.10;;;18.80;99.90;;;;;;5037440;28;20464;-74
2022/06/30 04:08:29;;;;;;;7.93;6.07;;;18.90;99.90;;;;;;5043501;28;20516;-74
2022/06/30 04:11:15;;;;;;;6.50;5.70;;;19.00;99.90;;;;;;5040788;28;20487;-74
2022/06/30 04:14:01;;;;;;;6.43;5.73;;;18.90;99.90;;;;;;5034065;28;20509;-74
2022/06/30 04:16:47;;;;;;;8.07;6.00;;;18.80;99.90;;;;;;5037629;28;20423;-74
2022/06/30 04:19:32;;;;;;;10.50;5.93;;;18.90;99.90;;;;;;5035906;28;20522;-74
2022/06/30 04:22:18;;;;;;;6.87;5.13;;;19.00;99.90;;;;;;5032963;28;20798;-74
2022/06/30 04:25:06;;;;;;;6.40;5.80;;;19.00;99.90;;;;;;5034047;28;20479;-74
2022/06/30 04:27:53;;;;;;;7.10;6.27;;;19.00;99.90;;;;;;5030601;28;20476;-74
2022/06/30 04:33:42;;;;;;;11.07;5.90;;;19.00;99.90;;;;;;5032461;28;20444;-75
2022/06/30 04:36:29;;;;;;;5.73;5.20;;;19.10;99.90;;;;;;5041604;28;20483;-74
2022/06/30 04:39:15;;;;;;;5.70;5.20;;;19.10;99.90;;;;;;5036760;28;20985;-74
2022/06/30 04:42:01;;;;;;;7.30;5.97;;;19.10;99.90;;;;;;5023475;28;20448;-74
2022/06/30 04:44:47;;;;;;;7.13;5.07;;;19.10;99.90;;;;;;5031727;28;20530;-74
2022/06/30 04:47:34;;;;;;;6.10;5.60;;;19.20;99.90;;;;;;5038039;28;20562;-74
2022/06/30 04:50:20;;;;;;;7.80;6.77;;;19.20;99.90;;;;;;5039173;28;20452;-75
2022/06/30 04:53:05;;;;;;;16.13;5.60;;;19.30;99.90;;;;;;5033744;28;20445;-74
2022/06/30 04:55:51;;;;;;;7.87;7.17;;;19.30;99.90;;;;;;5031413;28;20491;-74
2022/06/30 04:58:39;;;;;;;10.23;6.70;;;19.40;99.90;;;;;;5036408;28;20572;-74
2022/06/30 05:01:25;;;;;;;7.27;6.47;;;19.60;99.90;;;;;;5035611;28;20543;-74
2022/06/30 05:04:10;;;;;;;9.60;6.30;;;19.60;99.90;;;;;;5042453;28;20447;-74
2022/06/30 05:06:55;;;;;;;6.70;6.00;;;19.70;99.90;;;;;;5030496;28;21000;-74
2022/06/30 05:09:41;;;;;;;19.67;8.23;;;19.80;99.90;;;;;;5036210;28;20444;-74
2022/06/30 05:12:27;;;;;;;9.03;6.67;;;19.90;99.90;;;;;;5026931;28;20564;-74
2022/06/30 05:15:14;;;;;;;7.43;6.80;;;19.90;99.90;;;;;;5035720;28;20458;-74
2022/06/30 05:18:00;;;;;;;9.87;7.33;;;20.00;99.90;;;;;;5040192;28;20957;-74
2022/06/30 05:20:46;;;;;;;9.73;6.40;;;20.00;99.90;;;;;;5036445;28;20492;-74
2022/06/30 05:23:32;;;;;;;7.40;6.70;;;20.10;99.90;;;;;;5034429;28;20903;-74
2022/06/30 05:26:29;;;;;;;8.37;7.13;;;20.30;99.90;;;;;;5045013;28;20432;-75
2022/06/30 05:29:14;;;;;;;13.53;7.30;;;20.40;99.90;;;;;;5038620;28;20535;-74
2022/06/30 05:32:01;;;;;;;11.33;7.10;;;20.60;99.90;;;;;;5028570;28;20877;-75
2022/06/30 05:34:47;;;;;;;7.07;6.43;;;20.60;99.90;;;;;;5038006;28;20570;-75
2022/06/30 05:37:32;;;;;;;10.03;7.03;;;20.70;99.90;;;;;;5042244;28;20795;-75
2022/06/30 05:40:18;;;;;;;10.43;6.53;;;20.80;99.90;;;;;;5032834;28;20519;-75
2022/06/30 05:43:03;;;;;;;10.10;7.20;;;20.90;99.90;;;;;;5043007;28;20423;-75
2022/06/30 05:45:50;;;;;;;10.23;6.60;;;21.00;99.90;;;;;;5029123;28;20538;-75
2022/06/30 05:48:38;;;;;;;6.90;6.30;;;21.00;99.90;;;;;;5042546;28;20526;-75
2022/06/30 05:51:24;;;;;;;10.43;7.40;;;21.10;99.90;;;;;;5025876;28;20444;-75
2022/06/30 05:54:10;;;;;;;7.60;6.53;;;21.30;99.90;;;;;;5032754;28;20588;-75
2022/06/30 05:56:55;;;;;;;10.10;6.63;;;21.30;99.90;;;;;;5036467;28;20440;-75
2022/06/30 05:59:41;;;;;;;8.27;6.40;;;21.50;99.90;;;;;;5029702;28;20969;-75
2022/06/30 06:02:27;;;;;;;6.23;5.53;;;21.50;99.90;;;;;;5027620;28;20816;-74
2022/06/30 06:05:14;;;;;;;9.67;6.47;;;21.70;99.90;;;;;;5031991;28;20510;-75
2022/06/30 06:08:05;;;;;;;7.10;6.50;;;21.80;99.90;;;;;;5033296;28;20472;-75
2022/06/30 06:10:51;;;;;;;7.43;6.63;;;21.80;99.90;;;;;;5027736;28;20935;-75
2022/06/30 06:13:36;;;;;;;8.80;6.30;;;21.90;99.90;;;;;;5041629;28;20482;-74
2022/06/30 06:16:22;;;;;;;8.90;6.40;;;22.00;99.90;;;;;;5035834;28;20460;-75
2022/06/30 06:19:08;;;;;;;10.00;6.20;;;22.00;99.90;;;;;;5033718;28;20514;-75
2022/06/30 06:21:54;;;;;;;8.13;6.43;;;22.10;99.90;;;;;;5032090;28;21003;-75
2022/06/30 06:24:40;;;;;;;6.80;6.10;;;22.20;99.90;;;;;;5039163;28;21062;-75
2022/06/30 06:27:25;;;;;;;7.60;5.60;;;22.30;99.90;;;;;;5045588;28;20606;-75
2022/06/30 06:30:12;;;;;;;9.03;6.00;;;22.40;99.90;;;;;;5024638;28;21018;-75
2022/06/30 06:32:58;;;;;;;8.93;6.10;;;22.50;99.90;;;;;;5030365;28;20494;-74
2022/06/30 06:35:43;;;;;;;8.23;5.27;;;22.60;99.90;;;;;;5043129;28;20603;-75
2022/06/30 06:38:30;;;;;;;8.83;5.40;;;22.60;99.90;;;;;;5034748;28;20796;-75
2022/06/30 06:41:20;;;;;;;6.57;5.43;;;22.70;99.90;;;;;;5033198;28;20900;-75
2022/06/30 06:44:06;;;;;;;7.30;5.93;;;22.80;99.90;;;;;;5034798;28;20482;-75
2022/06/30 06:46:52;;;;;;;5.87;5.20;;;22.90;99.90;;;;;;5039667;28;20556;-74
2022/06/30 06:49:38;;;;;;;6.60;5.20;;;23.00;99.90;;;;;;5028668;28;20520;-74
2022/06/30 06:52:23;;;;;;;5.80;5.23;;;23.10;99.90;;;;;;5033378;28;20820;-75
2022/06/30 06:55:11;;;;;;;6.07;4.73;;;23.20;99.90;;;;;;5028995;28;20459;-75
2022/06/30 06:57:57;;;;;;;7.67;5.17;;;23.30;99.90;;;;;;5031008;28;20418;-75
2022/06/30 07:00:43;;;;;;;10.13;5.63;;;23.30;99.90;;;;;;5021286;28;20456;-75
2022/06/30 07:03:29;;;;;;;12.30;6.37;;;23.40;99.90;;;;;;5037191;28;20419;-75
2022/06/30 07:06:15;;;;;;;5.67;4.83;;;23.50;99.90;;;;;;5035225;28;20971;-76
2022/06/30 07:09:00;;;;;;;6.40;4.97;;;23.70;99.90;;;;;;5025918;28;20531;-75
2022/06/30 07:11:48;;;;;;;5.87;4.50;;;23.80;99.90;;;;;;5033569;28;20443;-75
2022/06/30 07:14:33;;;;;;;9.63;4.00;;;23.90;99.90;;;;;;5042392;28;20460;-75
2022/06/30 07:17:19;;;;;;;6.07;4.27;;;23.90;99.90;;;;;;5030728;28;21122;-75
2022/06/30 07:20:06;;;;;;;5.00;4.00;;;24.00;99.90;;;;;;5024647;28;20546;-74
2022/06/30 07:22:52;;;;;;;15.13;4.20;;;24.10;99.90;;;;;;5029886;28;20452;-76
2022/06/30 07:25:38;;;;;;;4.83;3.93;;;24.20;99.90;;;;;;5028788;28;21188;-75
2022/06/30 07:28:25;;;;;;;4.40;4.00;;;24.30;99.90;;;;;;5031548;28;20522;-75
2022/06/30 07:31:12;;;;;;;6.30;3.97;;;24.40;99.90;;;;;;5032924;28;20538;-75
2022/06/30 07:33:58;;;;;;;7.30;3.77;;;24.50;99.90;;;;;;5031495;28;20795;-76
2022/06/30 07:36:43;;;;;;;6.73;4.40;;;24.70;99.70;;;;;;5033205;28;20446;-75
2022/06/30 07:39:29;;;;;;;6.80;3.67;;;24.70;95.90;;;;;;5028506;28;20800;-75
2022/06/30 07:42:15;;;;;;;5.50;3.53;;;24.80;96.00;;;;;;5030002;28;20494;-76
2022/06/30 07:45:03;;;;;;;7.00;4.23;;;24.90;97.10;;;;;;5029398;28;20479;-76
2022/06/30 07:47:49;;;;;;;7.27;3.57;;;25.00;95.70;;;;;;5029072;28;20828;-75
2022/06/30 07:50:35;;;;;;;3.80;3.40;;;25.00;93.10;;;;;;5033683;28;20578;-76
2022/06/30 07:53:20;;;;;;;7.43;3.77;;;24.90;88.40;;;;;;5034021;28;20494;-76
2022/06/30 07:56:06;;;;;;;4.53;3.57;;;25.00;89.90;;;;;;5027105;28;20583;-75
2022/06/30 07:58:52;;;;;;;5.87;3.40;;;25.10;90.60;;;;;;5025801;28;20445;-76
2022/06/30 08:01:39;;;;;;;7.77;3.27;;;25.20;91.10;;;;;;5032594;28;20445;-76
2022/06/30 08:04:24;;;;;;;5.90;3.27;;;25.20;79.30;;;;;;5032954;28;20915;-76
2022/06/30 08:07:10;;;;;;;6.17;3.30;;;25.30;83.70;;;;;;5028625;28;20444;-75
2022/06/30 08:09:56;;;;;;;6.63;3.07;;;25.40;82.30;;;;;;5024861;28;20550;-75
2022/06/30 08:12:42;;;;;;;5.47;2.77;;;25.50;82.50;;;;;;5036063;28;20456;-76
2022/06/30 08:15:28;;;;;;;8.73;3.23;;;25.60;77.10;;;;;;5040435;28;20972;-76
2022/06/30 08:18:15;;;;;;;5.33;3.13;;;25.60;77.40;;;;;;5031699;28;20580;-75
2022/06/30 08:21:01;;;;;;;5.90;3.00;;;25.70;76.80;;;;;;5038394;28;20420;-75
2022/06/30 08:23:46;;;;;;;6.30;3.03;;;25.80;75.40;;;;;;5038533;28;20953;-76
2022/06/30 08:26:32;;;;;;;6.53;3.27;;;25.90;66.80;;;;;;5034746;28;20499;-75
2022/06/30 08:29:18;;;;;;;4.50;3.17;;;25.90;66.70;;;;;;5033684;28;21007;-75
2022/06/30 08:32:05;;;;;;;5.90;2.83;;;25.90;57.40;;;;;;5041874;28;20595;-76
2022/06/30 08:34:52;;;;;;;5.63;3.23;;;25.90;60.50;;;;;;5043313;28;20459;-75
2022/06/30 08:37:38;;;;;;;4.70;2.97;;;26.00;60.50;;;;;;5034305;28;20449;-75
2022/06/30 08:43:30;;;;;;;7.80;3.97;;;26.20;58.90;;;;;;5040212;28;20467;-74
2022/06/30 08:46:19;;;;;;;6.03;3.20;;;26.30;62.10;;;;;;5045636;28;20805;-76
2022/06/30 08:49:04;;;;;;;5.67;3.43;;;26.40;62.60;;;;;;5039501;28;20591;-76
2022/06/30 08:51:53;;;;;;;7.20;3.67;;;26.50;60.20;;;;;;5045120;28;20494;-76
2022/06/30 08:54:40;;;;;;;4.63;3.67;;;26.50;61.30;;;;;;5039746;28;20447;-76
2022/06/30 08:57:26;;;;;;;5.27;3.33;;;26.60;60.00;;;;;;5027131;28;21073;-75
2022/06/30 09:00:15;;;;;;;7.40;4.07;;;26.70;64.00;;;;;;5043298;28;20455;-75
2022/06/30 09:03:01;;;;;;;4.00;3.60;;;26.80;59.90;;;;;;5038585;28;20920;-75
2022/06/30 09:05:47;;;;;;;4.03;3.53;;;26.90;61.20;;;;;;5040016;28;20873;-75
2022/06/30 09:08:34;;;;;;;3.67;3.20;;;26.90;57.60;;;;;;5038271;28;20479;-75
2022/06/30 09:11:20;;;;;;;5.90;3.67;;;27.00;62.30;;;;;;5041709;28;20429;-75
2022/06/30 09:14:05;;;;;;;4.73;4.13;;;27.00;57.70;;;;;;5037074;28;20820;-75
2022/06/30 09:16:54;;;;;;;6.13;3.70;;;27.10;57.50;;;;;;5029505;28;20457;-75
2022/06/30 09:19:52;;;;;;;4.30;3.43;;;27.10;59.40;;;;;;5041324;28;20445;-75
2022/06/30 09:22:39;;;;;;;5.03;3.40;;;27.20;58.60;;;;;;5041655;28;20452;-75
2022/06/30 09:25:31;;;;;;;3.70;3.23;;;27.30;57.60;;;;;;5032631;28;20558;-74
2022/06/30 09:28:37;;;;;;;3.37;2.67;;;27.30;49.30;;;;;;5026967;28;20483;-74
2022/06/30 09:31:35;;;;;;;6.00;2.80;;;27.30;46.10;;;;;;5035060;28;20819;-75
2022/06/30 09:34:22;;;;;;;3.80;2.90;;;27.30;45.00;;;;;;5031039;28;20486;-74
2022/06/30 09:37:16;;;;;;;5.40;3.63;;;27.30;46.80;;;;;;5024296;28;20454;-75
2022/06/30 09:40:02;;;;;;;5.90;3.70;;;27.40;52.70;;;;;;5032499;28;20448;-75
2022/06/30 09:42:49;;;;;;;6.67;3.30;;;27.50;44.50;;;;;;5041245;28;20945;-75
2022/06/30 09:45:38;;;;;;;5.23;2.90;;;27.50;46.00;;;;;;5031232;28;20476;-76
2022/06/30 09:48:28;;;;;;;4.97;2.70;;;27.60;45.30;;;;;;5031411;28;20469;-75
2022/06/30 09:51:14;;;;;;;7.10;3.00;;;27.70;44.70;;;;;;5037130;28;20419;-76
2022/06/30 09:54:07;;;;;;;7.40;2.90;;;27.80;42.70;;;;;;5032117;28;20845;-75
2022/06/30 09:57:02;;;;;;;5.83;3.80;;;27.90;42.80;;;;;;5026320;28;20467;-74
2022/06/30 09:59:59;;;;;;;5.63;3.50;;;27.70;41.00;;;;;;5048945;28;20416;-75
2022/06/30 10:02:47;;;;;;;10.17;3.07;;;27.60;44.20;;;;;;5036264;28;20447;-75
2022/06/30 10:05:33;;;;;;;4.10;3.00;;;27.70;44.50;;;;;;5038472;28;21078;-75
2022/06/30 10:08:20;;;;;;;8.97;3.70;;;27.60;44.50;;;;;;5039693;28;20466;-75
2022/06/30 10:11:06;;;;;;;7.27;3.80;;;27.50;41.30;;;;;;5040396;28;20448;-75
2022/06/30 10:13:53;;;;;;;6.73;4.03;;;27.50;45.10;;;;;;5033184;28;20424;-75
2022/06/30 10:16:41;;;;;;;5.30;3.07;;;27.40;46.90;;;;;;5031765;28;20825;-74
2022/06/30 10:19:27;;;;;;;7.03;3.30;;;27.40;46.90;;;;;;5040748;28;20493;-75
2022/06/30 10:22:13;;;;;;;4.40;2.70;;;27.50;44.00;;;;;;5039722;28;20463;-75
2022/06/30 10:24:59;;;;;;;7.73;3.77;;;27.50;45.60;;;;;;5028824;28;20483;-75
2022/06/30 10:27:46;;;;;;;4.00;3.23;;;27.70;47.10;;;;;;5025906;28;22601;-75
2022/06/30 10:30:43;;;;;;;5.53;3.13;;;27.80;43.40;;;;;;5038499;28;20513;-75
2022/06/30 10:33:40;;;;;;;4.63;3.13;;;27.90;43.70;;;;;;5039458;28;20558;-75
2022/06/30 10:36:30;;;;;;;4.20;2.90;;;28.00;39.90;;;;;;5028838;28;20675;-74
2022/06/30 10:39:23;;;;;;;8.00;3.50;;;28.00;39.50;;;;;;5033320;28;20456;-75
2022/06/30 10:42:09;;;;;;;7.93;3.20;;;28.10;40.30;;;;;;5029081;28;20449;-75
2022/06/30 10:44:54;;;;;;;5.83;3.53;;;28.20;38.30;;;;;;5027326;28;20527;-76
2022/06/30 10:47:58;;;;;;;4.97;3.10;;;28.30;40.50;;;;;;5024839;28;20436;-76
2022/06/30 10:50:46;;;;;;;6.50;2.83;;;28.40;40.50;;;;;;5036058;28;20435;-76
2022/06/30 10:53:54;;;;;;;4.70;2.70;;;28.50;38.40;;;;;;5029354;28;20861;-76
2022/06/30 10:56:56;;;;;;;4.47;2.80;;;28.40;38.70;;;;;;5033973;28;20435;-76
2022/06/30 10:59:42;;;;;;;7.37;2.80;;;28.50;41.20;;;;;;5045232;28;20430;-76
2022/06/30 11:02:29;;;;;;;9.40;3.57;;;28.60;38.40;;;;;;5039609;28;20739;-76
2022/06/30 11:05:25;;;;;;;4.27;2.90;;;28.60;43.30;;;;;;5027270;28;20600;-76
2022/06/30 11:08:58;;;;;;;3.60;2.93;;;28.60;43.80;;;;;;5030814;28;20449;-76
2022/06/30 11:11:46;;;;;;;5.33;3.47;;;28.40;37.90;;;;;;5006151;28;20449;-76
2022/06/30 11:14:34;;;;;;;6.83;3.40;;;28.50;38.90;;;;;;5038492;28;21231;-75
2022/06/30 11:17:21;;;;;;;7.93;3.53;;;28.60;38.30;;;;;;5032579;28;20441;-76
2022/06/30 11:20:10;;;;;;;3.50;2.97;;;28.80;38.20;;;;;;5028506;28;20559;-76
2022/06/30 11:22:56;;;;;;;4.60;3.10;;;28.80;36.80;;;;;;5034185;28;20425;-76
2022/06/30 11:28:48;;;;;;;8.00;3.33;;;28.60;40.90;;;;;;5029352;28;20518;-71
2022/06/30 11:31:36;;;;;;;4.10;2.80;;;28.70;43.20;;;;;;5029113;28;20794;-72
2022/06/30 11:34:22;;;;;;;4.40;3.57;;;28.90;36.30;;;;;;5025520;28;20454;-72
2022/06/30 11:37:08;;;;;;;4.00;3.00;;;29.10;37.70;;;;;;5023292;28;20454;-71
2022/06/30 11:39:57;;;;;;;5.83;3.37;;;29.30;36.50;;;;;;5026392;28;20455;-71
2022/06/30 11:42:43;;;;;;;3.43;2.57;;;29.40;37.00;;;;;;5026242;28;20475;-71
2022/06/30 11:45:30;;;;;;;4.57;3.30;;;29.50;35.70;;;;;;5023777;28;21059;-72
2022/06/30 11:48:17;;;;;;;6.90;2.70;;;29.50;34.20;;;;;;5025801;28;20526;-71
2022/06/30 11:51:03;;;;;;;4.70;2.50;;;29.60;36.00;;;;;;5031905;28;20467;-72
2022/06/30 11:53:50;;;;;;;3.17;2.60;;;29.80;34.50;;;;;;5026914;28;20507;-72
2022/06/30 11:56:47;;;;;;;6.23;2.80;;;29.90;33.90;;;;;;5029702;28;20490;-73
2022/06/30 11:59:34;;;;;;;5.73;2.97;;;29.90;31.50;;;;;;5039142;28;20495;-71
2022/06/30 12:02:21;;;;;;;4.93;2.77;;;29.40;30.00;;;;;;5034388;28;20568;-72
2022/06/30 12:05:10;;;;;;;3.60;2.60;;;29.40;39.10;;;;;;5025571;28;20468;-72
2022/06/30 12:07:56;;;;;;;3.83;2.40;;;29.30;36.70;;;;;;5030728;28;20443;-72
2022/06/30 12:10:44;;;;;;;3.00;2.20;;;29.40;29.70;;;;;;5031885;28;20472;-71
2022/06/30 12:13:30;;;;;;;3.70;2.20;;;29.50;29.60;;;;;;5024687;28;20453;-72
2022/06/30 12:16:19;;;;;;;3.50;2.33;;;29.70;28.10;;;;;;5031488;28;20528;-72
2022/06/30 12:19:06;;;;;;;4.47;2.67;;;30.00;26.50;;;;;;5025871;28;20436;-71
2022/06/30 12:21:52;;;;;;;3.47;2.30;;;30.10;27.40;;;;;;5029199;28;20583;-72
2022/06/30 12:24:40;;;;;;;4.30;2.10;;;30.20;26.60;;;;;;5025670;28;20503;-72
2022/06/30 12:27:27;;;;;;;3.73;2.37;;;30.40;25.20;;;;;;5033379;28;20944;-72
2022/06/30 12:30:15;;;;;;;3.87;2.50;;;30.50;25.40;;;;;;5025449;28;20588;-72
2022/06/30 12:33:02;;;;;;;3.20;2.30;;;30.50;25.40;;;;;;5026561;28;20451;-72
2022/06/30 12:35:49;;;;;;;7.80;2.80;;;30.40;25.10;;;;;;5036217;28;20475;-72
2022/06/30 12:38:34;;;;;;;3.30;2.27;;;30.50;26.10;;;;;;5039640;28;20423;-72
2022/06/30 12:41:22;;;;;;;5.37;2.30;;;30.60;25.90;;;;;;5028789;28;20814;-72
2022/06/30 12:44:10;;;;;;;7.60;2.50;;;30.40;26.30;;;;;;5022425;28;20698;-72
2022/06/30 12:47:04;;;;;;;6.20;2.80;;;30.60;25.70;;;;;;5030042;28;20659;-72
2022/06/30 12:49:50;;;;;;;4.47;2.23;;;30.60;24.90;;;;;;5030211;28;20461;-72
2022/06/30 12:52:37;;;;;;;3.13;2.20;;;30.60;26.20;;;;;;5028345;28;20543;-72
2022/06/30 12:55:23;;;;;;;4.23;2.70;;;30.70;25.40;;;;;;5025542;28;20484;-72
2022/06/30 12:58:08;;;;;;;6.93;2.90;;;30.70;24.10;;;;;;5028994;28;20980;-73
2022/06/30 13:00:58;;;;;;;9.53;2.70;;;30.70;25.40;;;;;;5021485;28;20472;-72
2022/06/30 13:03:50;;;;;;;4.83;2.47;;;30.90;26.80;;;;;;5015630;28;20477;-73
2022/06/30 13:06:38;;;;;;;3.57;2.60;;;31.00;24.50;;;;;;5021436;28;20814;-72
2022/06/30 13:09:27;;;;;;;4.83;2.73;;;30.90;25.00;;;;;;5016957;28;20952;-72
2022/06/30 13:12:13;;;;;;;6.53;2.77;;;30.90;24.10;;;;;;5022884;28;20452;-73
2022/06/30 13:14:58;;;;;;;3.97;2.70;;;31.10;25.70;;;;;;5024689;28;20460;-73
2022/06/30 13:17:46;;;;;;;3.80;2.90;;;31.10;24.90;;;;;;5038277;28;20827;-73
2022/06/30 13:20:31;;;;;;;3.47;2.23;;;31.30;25.20;;;;;;5031122;28;20449;-73
2022/06/30 13:23:17;;;;;;;4.43;2.80;;;31.40;25.40;;;;;;5021355;28;20599;-72
2022/06/30 13:26:03;;;;;;;5.80;2.80;;;31.60;26.50;;;;;;5029881;28;20891;-73
2022/06/30 13:28:49;;;;;;;6.73;2.90;;;31.80;26.30;;;;;;5033391;28;20451;-73
2022/06/30 13:31:36;;;;;;;7.03;2.87;;;32.10;26.00;;;;;;5029437;28;20558;-73
2022/06/30 13:34:22;;;;;;;3.90;2.47;;;32.30;25.80;;;;;;5030382;28;20457;-73
2022/06/30 13:37:08;;;;;;;3.83;2.87;;;32.50;23.80;;;;;;5028416;28;20449;-73
2022/06/30 13:39:53;;;;;;;7.33;2.70;;;32.60;23.80;;;;;;5034507;28;20429;-73
2022/06/30 13:42:40;;;;;;;4.50;2.47;;;32.50;22.90;;;;;;5032183;28;20576;-73
2022/06/30 13:45:26;;;;;;;4.40;3.00;;;32.30;21.90;;;;;;5019939;28;20476;-73
2022/06/30 13:48:12;;;;;;;3.60;2.80;;;32.00;22.80;;;;;;5040297;28;20928;-73
2022/06/30 13:50:57;;;;;;;3.83;2.47;;;32.10;23.50;;;;;;5023509;28;20472;-73
2022/06/30 13:53:43;;;;;;;5.30;2.60;;;32.20;23.60;;;;;;5024919;28;20447;-73
2022/06/30 13:56:28;;;;;;;5.10;2.67;;;32.40;23.70;;;;;;5026984;28;20508;-73
2022/06/30 13:59:16;;;;;;;4.47;2.60;;;32.40;23.00;;;;;;5027093;28;20841;-73
2022/06/30 14:02:01;;;;;;;4.50;2.47;;;32.40;23.00;;;;;;5026545;28;20965;-71
2022/06/30 14:04:47;;;;;;;4.93;2.97;;;32.50;22.30;;;;;;5033135;28;20440;-73
2022/06/30 14:07:33;;;;;;;5.07;2.73;;;32.30;24.20;;;;;;5027514;28;20451;-73
2022/06/30 14:10:18;;;;;;;3.47;2.67;;;32.40;22.90;;;;;;5031652;28;20468;-73
2022/06/30 14:13:04;;;;;;;3.20;2.60;;;32.30;21.80;;;;;;5026562;28;20552;-73
2022/06/30 14:15:51;;;;;;;3.50;2.80;;;32.40;23.20;;;;;;5029073;28;20476;-72
2022/06/30 14:18:36;;;;;;;6.23;2.40;;;32.50;23.80;;;;;;5027877;28;20436;-72
2022/06/30 14:21:22;;;;;;;9.03;2.57;;;32.60;23.80;;;;;;5022094;28;20471;-72
2022/06/30 14:24:08;;;;;;;3.60;2.73;;;32.40;22.50;;;;;;5020013;28;20507;-73
2022/06/30 14:26:54;;;;;;;5.70;2.97;;;32.30;21.80;;;;;;5026789;28;20952;-73
2022/06/30 14:29:42;;;;;;;8.50;2.90;;;32.40;23.20;;;;;;5031396;28;20480;-73
2022/06/30 14:32:29;;;;;;;3.93;3.43;;;32.40;23.60;;;;;;5033176;28;20575;-73
2022/06/30 14:35:16;;;;;;;7.93;2.87;;;32.40;22.40;;;;;;5024889;28;20533;-73
2022/06/30 14:38:01;;;;;;;10.00;3.47;;;32.50;22.10;;;;;;5027942;28;20527;-73
2022/06/30 14:40:47;;;;;;;6.93;3.40;;;32.50;22.70;;;;;;5028802;28;20432;-73